powered by Meteolive.it
Dati meteo   Attuali  Passati Ogni 3 ore 7 Giorni 15 Giorni Avvisi Meteo Mappe meteo
Milano / Linate, Italy
Alba: 6:45 AM UTC1
Tramonto: 5:28 PM UTC1
 Lat: 45.42N, Lon: 9.27E
ICAO Usato: LIML
Condizioni Meteo Attuali Aggiornate: 21.10.2017 alle 11:20 LT
Foschia
Foschia
Molto Nuvoloso
Foschia
Temp: 13°C
Umidita': 94%
Direz/Vel. Vento: variabile 02 KTS raffiche
Pressione: 1021 hPa
Punto di rugiada: 12°C
Temperatura percepita: 13°C
Visibilitą: 1500 m. (discreta)
Temperatura percepita in
presenza di vento (Wind Chill)
:
N/D
T. max (ultime 24 ore): 13°C
T. min (ultime 24 ore): 12°C


METAR ORIGINALE
LIML 210720Z VRB02KT 1500 BR BKN015 13/12 Q1021 NOSIG